Airfield :
LOGIN :

Register | Disclaimer

   EN    FR    IT 

 










Legend :    VFR   Marginal VFR   IFR   Intensive IFR   Very Intensive IFR
Visi :
Ceiling :
>= 8 km
>= 3000ft
5 to 8 km
1000 to 3000 ft
1500m to 5 km
500 to 1000 ft
800 to 1500m
200 to 500 ft
< 800m
< 200 ft
Symbols :   Thunderstorms  Fog  Heavy snow  Heavy precipitations  Wind > 20 kt
SIGMETs :     Misc.  Thunderstorms  Icing  Turbulence  Mountain Waves  Volcanic Ashes







- Airport Elevation : 1345 ft
- IATA code : FRZ


ETHF - Fritzlar

CURRENT METAR :
  • 230420Z 00000KT 0600 FG BKN230 05/04 Q1020 RED RED BECMG BLU+

EXPIRED METARs :
  • 230320Z 00000KT 0100 FG SCT200 BKN290 05/04 Q1020 RED
  • 230310Z VRB01KT 0300 PRFG SCT190 BKN300 05/05 Q1020 RED
  • 230220Z 00000KT 5000 VCFG MIFG FEW180 BKN290 05/05 Q1020 WHT

TAF TAF ETHF
Valid from the 23 at 05:00 until the 23 at 14:00 UTC


230417Z 2305/2314 20004KT 9999 NSW BKN300
TEMPO 2305/2306 00000KT 0500 FG BKN300
No reported NOTAMs for that airfield.



MET'MAP, your aeronautical weather chart ! - Copyright ORBIFLY December 2007 - Disclaimer

ORBIFLY MET'MAP TEAM :

Programming & Development : Alexandra Zaïnal
Concept & Development : Baudouin d'Aumeries
Co-Development & Prog : Marc-Olivier Méhu
Technical & hardware support : Manuel Goepfert

Contact : metmap@orbifly.com




SOURCES & CREDITS :

   NOAA